Time;durP1;ratioP1;P1;durP2;ratioP2;P2;SDS_P1;SDS_P2;PMS_P1;PMS_P2;Temp;Humidity;BMP_temperature;BMP_pressure;BME280_temperature;BME280_humidity;BME280_pressure;Samples;Min_cycle;Max_cycle;Signal;HPM_P1;HPM_P2
2022/11/23 00:01:47;;;;;;;7.47;6.40;;;6.90;99.90;;;;;;5064966;28;20043;-63
2022/11/23 00:04:13;;;;;;;9.85;6.88;;;6.90;99.90;;;;;;5069232;28;20049;-63
2022/11/23 00:06:40;;;;;;;9.65;5.30;;;6.90;99.90;;;;;;5059250;28;20033;-63
2022/11/23 00:09:06;;;;;;;8.00;6.00;;;6.90;99.90;;;;;;5068721;28;20051;-63
2022/11/23 00:11:34;;;;;;;6.78;5.78;;;6.90;99.90;;;;;;5070815;28;20129;-63
2022/11/23 00:13:59;;;;;;;10.23;6.85;;;6.90;99.90;;;;;;5050075;28;20044;-63
2022/11/23 00:16:27;;;;;;;9.15;6.65;;;6.90;99.90;;;;;;5069191;28;20407;-63
2022/11/23 00:18:55;;;;;;;9.38;6.72;;;6.90;99.90;;;;;;5069337;28;20056;-63
2022/11/23 00:21:21;;;;;;;11.00;6.88;;;6.90;99.90;;;;;;5069869;28;20048;-63
2022/11/23 00:23:47;;;;;;;11.65;6.85;;;6.90;99.90;;;;;;5070236;28;20106;-63
2022/11/23 00:26:14;;;;;;;11.65;6.47;;;6.80;99.90;;;;;;5066563;28;20101;-63
2022/11/23 00:28:41;;;;;;;8.48;6.95;;;6.90;99.90;;;;;;5068960;28;20436;-63
2022/11/23 00:31:12;;;;;;;8.15;6.57;;;6.90;99.90;;;;;;5068764;28;20057;-63
2022/11/23 00:33:38;;;;;;;9.73;6.05;;;7.00;99.90;;;;;;5069566;28;20417;-63
2022/11/23 00:36:06;;;;;;;14.20;7.13;;;7.00;99.90;;;;;;5059036;28;20048;-63
2022/11/23 00:38:34;;;;;;;6.72;5.72;;;7.00;99.90;;;;;;5069512;28;20478;-63
2022/11/23 00:41:09;;;;;;;7.07;5.65;;;7.10;99.90;;;;;;5069630;28;20379;-63
2022/11/23 00:43:35;;;;;;;9.50;7.47;;;7.10;99.90;;;;;;5052749;28;20075;-63
2022/11/23 00:46:02;;;;;;;10.18;7.13;;;7.10;99.90;;;;;;5089259;28;20040;-63
2022/11/23 00:48:27;;;;;;;10.98;6.95;;;7.10;99.90;;;;;;5088800;28;20051;-63
2022/11/23 00:50:53;;;;;;;8.50;7.65;;;7.20;99.90;;;;;;5071020;28;20040;-63
2022/11/23 00:53:19;;;;;;;10.45;6.70;;;7.20;99.90;;;;;;5070166;28;20541;-63
2022/11/23 00:55:56;;;;;;;12.10;6.88;;;7.10;99.90;;;;;;5070812;28;20083;-63
2022/11/23 00:58:22;;;;;;;13.68;6.95;;;7.20;99.90;;;;;;5085161;28;20044;-63
2022/11/23 01:00:48;;;;;;;12.45;6.60;;;7.20;99.90;;;;;;5086393;28;20469;-63
2022/11/23 01:03:14;;;;;;;10.98;7.45;;;7.20;99.90;;;;;;5089198;28;20115;-63
2022/11/23 01:05:40;;;;;;;12.65;7.70;;;7.20;99.90;;;;;;5087260;28;20032;-63
2022/11/23 01:08:07;;;;;;;10.32;7.65;;;7.20;99.90;;;;;;5087784;28;20051;-63
2022/11/23 01:10:33;;;;;;;11.93;8.40;;;7.20;99.90;;;;;;5070200;28;20051;-63
2022/11/23 01:13:00;;;;;;;12.82;7.72;;;7.20;99.90;;;;;;5051199;28;20044;-63
2022/11/23 01:15:25;;;;;;;10.02;6.40;;;7.30;99.90;;;;;;5061083;28;20082;-63
2022/11/23 01:17:52;;;;;;;10.52;7.53;;;7.20;99.90;;;;;;5069667;28;20086;-63
2022/11/23 01:20:18;;;;;;;14.38;7.30;;;7.20;99.90;;;;;;5089254;28;20416;-63
2022/11/23 01:22:43;;;;;;;10.98;8.20;;;7.30;99.90;;;;;;5087970;28;20489;-63
2022/11/23 01:25:09;;;;;;;15.30;8.15;;;7.20;99.90;;;;;;5088790;28;20044;-63
2022/11/23 01:27:35;;;;;;;12.05;7.60;;;7.30;99.90;;;;;;5069686;28;20047;-63
2022/11/23 01:30:00;;;;;;;12.70;8.20;;;7.30;99.90;;;;;;5081075;28;20052;-63
2022/11/23 01:32:26;;;;;;;11.30;7.78;;;7.30;99.90;;;;;;5087936;28;20154;-63
2022/11/23 01:34:52;;;;;;;11.10;8.23;;;7.30;99.90;;;;;;5088344;28;20509;-63
2022/11/23 01:37:18;;;;;;;17.00;8.45;;;7.30;99.90;;;;;;5070445;28;20133;-63
2022/11/23 01:39:43;;;;;;;10.00;7.60;;;7.30;99.90;;;;;;5069639;28;20074;-63
2022/11/23 01:42:09;;;;;;;10.63;8.18;;;7.30;99.90;;;;;;5066901;28;20101;-63
2022/11/23 01:44:38;;;;;;;13.68;8.57;;;7.30;99.90;;;;;;5087443;28;20048;-63
2022/11/23 01:47:08;;;;;;;10.93;7.78;;;7.30;99.90;;;;;;5088702;28;20065;-63
2022/11/23 01:49:51;;;;;;;13.43;8.00;;;7.20;99.90;;;;;;5087703;28;20573;-63
2022/11/23 01:52:22;;;;;;;13.57;8.15;;;7.30;99.90;;;;;;5086663;28;20493;-63
2022/11/23 01:54:57;;;;;;;14.55;8.65;;;7.30;99.90;;;;;;5070531;28;20040;-63
2022/11/23 01:57:37;;;;;;;19.00;8.80;;;7.30;99.90;;;;;;5086834;28;20406;-63
2022/11/23 02:00:04;;;;;;;10.15;8.50;;;7.30;99.90;;;;;;5070801;28;20048;-63
2022/11/23 02:02:31;;;;;;;16.25;9.38;;;7.40;99.90;;;;;;5082741;28;20501;-63
2022/11/23 02:04:59;;;;;;;10.60;8.50;;;7.40;99.90;;;;;;5079456;28;20059;-63
2022/11/23 02:07:26;;;;;;;13.95;9.88;;;7.30;99.90;;;;;;5088098;28;20040;-63
2022/11/23 02:09:52;;;;;;;16.52;10.13;;;7.40;99.90;;;;;;5087125;28;20115;-63
2022/11/23 02:12:18;;;;;;;17.98;9.13;;;7.40;99.90;;;;;;5088074;28;20139;-63
2022/11/23 02:14:45;;;;;;;15.77;10.35;;;7.30;99.90;;;;;;5057788;28;20631;-63
2022/11/23 02:17:11;;;;;;;13.57;9.85;;;7.40;99.90;;;;;;5069837;28;20054;-63
2022/11/23 02:19:56;;;;;;;14.30;8.90;;;7.30;99.90;;;;;;5087331;28;20261;-63
2022/11/23 02:22:36;;;;;;;11.85;8.90;;;7.30;99.90;;;;;;5087044;28;20101;-63
2022/11/23 02:25:09;;;;;;;13.13;8.95;;;7.30;99.90;;;;;;5081451;28;20065;-63
2022/11/23 02:27:35;;;;;;;13.82;9.00;;;7.40;99.90;;;;;;5086702;28;20400;-63
2022/11/23 02:30:01;;;;;;;12.00;9.25;;;7.40;99.90;;;;;;5053245;28;20486;-63
2022/11/23 02:32:28;;;;;;;11.82;9.43;;;7.40;99.90;;;;;;5086164;28;20048;-63
2022/11/23 02:34:54;;;;;;;13.18;8.88;;;7.40;99.90;;;;;;5086937;28;20044;-63
2022/11/23 02:37:20;;;;;;;15.65;9.85;;;7.40;99.90;;;;;;5087308;28;20043;-63
2022/11/23 02:39:49;;;;;;;14.73;10.05;;;7.40;99.90;;;;;;5086985;28;20051;-63
2022/11/23 02:42:15;;;;;;;15.73;9.13;;;7.40;99.90;;;;;;5088084;28;20040;-63
2022/11/23 02:44:59;;;;;;;20.67;10.63;;;7.50;99.90;;;;;;5083616;28;20054;-63
2022/11/23 02:47:25;;;;;;;16.17;9.23;;;7.40;99.90;;;;;;5069275;28;20086;-63
2022/11/23 02:49:50;;;;;;;15.77;10.30;;;7.40;99.90;;;;;;5086819;28;20075;-63
2022/11/23 02:52:17;;;;;;;16.50;9.43;;;7.40;99.90;;;;;;5085436;28;20044;-63
2022/11/23 02:54:43;;;;;;;16.23;10.50;;;7.50;99.90;;;;;;5079154;28;20474;-63
2022/11/23 02:57:08;;;;;;;18.27;10.05;;;7.50;99.90;;;;;;5086896;28;20043;-63
2022/11/23 02:59:35;;;;;;;17.55;10.60;;;7.50;99.90;;;;;;5069046;28;20393;-63
2022/11/23 03:02:03;;;;;;;15.85;12.10;;;7.50;99.90;;;;;;5085966;28;20523;-63
2022/11/23 03:04:28;;;;;;;15.85;11.20;;;7.50;99.90;;;;;;5050581;28;20071;-63
2022/11/23 03:06:54;;;;;;;15.00;10.80;;;7.50;99.90;;;;;;5086339;28;20074;-63
2022/11/23 03:09:20;;;;;;;16.02;10.85;;;7.50;99.90;;;;;;5051858;28;20122;-63
2022/11/23 03:11:46;;;;;;;17.90;10.80;;;7.50;99.90;;;;;;5068704;28;20044;-63
2022/11/23 03:14:12;;;;;;;14.90;10.77;;;7.50;99.90;;;;;;5078245;28;20048;-63
2022/11/23 03:16:37;;;;;;;15.10;10.77;;;7.50;99.90;;;;;;5086933;28;20036;-63
2022/11/23 03:19:03;;;;;;;17.35;10.63;;;7.50;99.90;;;;;;5051170;28;20040;-63
2022/11/23 03:21:29;;;;;;;12.63;10.38;;;7.50;99.90;;;;;;5051179;28;20068;-63
2022/11/23 03:23:55;;;;;;;17.35;10.75;;;7.60;99.90;;;;;;5085317;28;20054;-63
2022/11/23 03:26:21;;;;;;;13.35;9.82;;;7.50;99.90;;;;;;5075467;28;20047;-63
2022/11/23 03:28:46;;;;;;;13.38;10.95;;;7.60;99.90;;;;;;5067862;28;20048;-62
2022/11/23 03:31:14;;;;;;;13.27;10.85;;;7.50;99.90;;;;;;5084588;28;20066;-63
2022/11/23 03:33:39;;;;;;;17.30;10.82;;;7.60;99.90;;;;;;5086650;28;20401;-62
2022/11/23 03:36:05;;;;;;;16.08;10.27;;;7.60;99.90;;;;;;5085826;28;20028;-63
2022/11/23 03:38:31;;;;;;;20.35;11.10;;;7.60;99.90;;;;;;5086702;28;20047;-63
2022/11/23 03:40:57;;;;;;;15.80;11.57;;;7.60;99.90;;;;;;5083761;28;20043;-63
2022/11/23 03:43:23;;;;;;;15.50;10.07;;;7.60;99.90;;;;;;5086341;28;20101;-63
2022/11/23 03:45:48;;;;;;;14.73;10.07;;;7.60;99.90;;;;;;5085594;28;20052;-62
2022/11/23 03:48:14;;;;;;;16.80;11.40;;;7.60;99.90;;;;;;5068720;28;20048;-63
2022/11/23 03:50:40;;;;;;;12.82;9.55;;;7.60;99.90;;;;;;5076345;28;20402;-62
2022/11/23 03:53:07;;;;;;;18.17;11.25;;;7.60;99.90;;;;;;5061389;28;20049;-63
2022/11/23 03:55:33;;;;;;;13.77;10.52;;;7.60;99.90;;;;;;5084049;28;20110;-63
2022/11/23 03:57:59;;;;;;;14.30;10.13;;;7.60;99.90;;;;;;5084673;28;20083;-63
2022/11/23 04:00:28;;;;;;;16.05;10.60;;;7.60;99.90;;;;;;5050839;28;20121;-63
2022/11/23 04:02:54;;;;;;;14.80;10.60;;;7.60;99.90;;;;;;5085166;28;20047;-63
2022/11/23 04:05:26;;;;;;;17.33;10.25;;;7.60;99.90;;;;;;5085474;28;20043;-63
2022/11/23 04:07:52;;;;;;;13.13;10.70;;;7.60;99.90;;;;;;5067639;28;20044;-63
2022/11/23 04:10:19;;;;;;;13.43;10.55;;;7.60;99.90;;;;;;5085523;28;20603;-63
2022/11/23 04:12:44;;;;;;;11.27;9.60;;;7.60;99.90;;;;;;5067533;28;20041;-63
2022/11/23 04:15:10;;;;;;;13.45;9.57;;;7.60;99.90;;;;;;5084759;28;20044;-63
2022/11/23 04:17:36;;;;;;;13.07;9.40;;;7.60;99.90;;;;;;5086040;28;20040;-63
2022/11/23 04:20:03;;;;;;;14.88;9.43;;;7.60;99.90;;;;;;5066452;28;20048;-63
2022/11/23 04:22:30;;;;;;;16.40;10.13;;;7.60;99.90;;;;;;5085659;28;20577;-63
2022/11/23 04:24:56;;;;;;;12.57;8.82;;;7.60;99.90;;;;;;5084875;28;20497;-63
2022/11/23 04:27:22;;;;;;;14.57;9.85;;;7.60;99.90;;;;;;5053116;28;20047;-63
2022/11/23 04:29:48;;;;;;;11.07;9.45;;;7.60;99.90;;;;;;5089273;28;20137;-63
2022/11/23 04:32:13;;;;;;;15.02;8.80;;;7.60;99.90;;;;;;5088466;28;20044;-63
2022/11/23 04:34:39;;;;;;;17.40;9.93;;;7.50;99.90;;;;;;5071232;28;20119;-63
2022/11/23 04:37:06;;;;;;;10.40;8.75;;;7.50;99.90;;;;;;5069987;28;20394;-63
2022/11/23 04:39:32;;;;;;;15.27;9.02;;;7.40;99.90;;;;;;5089075;28;20048;-63
2022/11/23 04:41:58;;;;;;;9.98;8.27;;;7.40;99.90;;;;;;5088107;28;20435;-63
2022/11/23 04:44:24;;;;;;;12.98;9.10;;;7.30;99.90;;;;;;5089291;28;20094;-63
2022/11/23 04:46:51;;;;;;;14.70;8.45;;;7.20;99.90;;;;;;5088956;28;20067;-62
2022/11/23 04:49:17;;;;;;;13.75;8.18;;;7.20;99.90;;;;;;5070687;28;20047;-62
2022/11/23 04:51:43;;;;;;;12.35;8.60;;;7.20;99.90;;;;;;5089051;28;20059;-63
2022/11/23 04:54:09;;;;;;;10.20;7.45;;;7.10;99.90;;;;;;5087924;28;20044;-63
2022/11/23 04:56:35;;;;;;;12.85;9.07;;;7.10;99.90;;;;;;5088929;28;20053;-63
2022/11/23 04:59:00;;;;;;;13.40;8.90;;;7.10;99.90;;;;;;5088141;28;20120;-63
2022/11/23 05:01:26;;;;;;;14.30;8.65;;;7.10;99.90;;;;;;5089346;28;20148;-63
2022/11/23 05:03:52;;;;;;;19.40;9.20;;;7.10;99.90;;;;;;5087718;28;20097;-63
2022/11/23 05:06:17;;;;;;;14.55;9.02;;;7.10;99.90;;;;;;5088797;28;20104;-63
2022/11/23 05:08:43;;;;;;;15.52;9.05;;;7.10;99.90;;;;;;5088457;28;20383;-63
2022/11/23 05:11:09;;;;;;;17.23;10.60;;;7.20;99.90;;;;;;5069431;28;20048;-63
2022/11/23 05:13:35;;;;;;;17.70;10.10;;;7.20;99.90;;;;;;5070793;28;20113;-63
2022/11/23 05:16:00;;;;;;;13.90;9.80;;;7.30;99.90;;;;;;5087196;28;20036;-63
2022/11/23 05:18:26;;;;;;;17.02;10.70;;;7.30;99.90;;;;;;5089060;28;20464;-63
2022/11/23 05:20:53;;;;;;;20.75;10.73;;;7.30;99.90;;;;;;5068994;28;20123;-63
2022/11/23 05:23:19;;;;;;;15.48;10.55;;;7.40;99.90;;;;;;5088847;28;20395;-63
2022/11/23 05:25:44;;;;;;;23.90;11.52;;;7.40;99.90;;;;;;5087828;28;20040;-62
2022/11/23 05:28:18;;;;;;;16.77;10.93;;;7.40;99.90;;;;;;5069825;28;20119;-63
2022/11/23 05:30:44;;;;;;;17.75;12.32;;;7.40;99.90;;;;;;5070115;28;20051;-63
2022/11/23 05:33:10;;;;;;;23.45;12.43;;;7.40;99.90;;;;;;5085558;28;20044;-63
2022/11/23 05:35:36;;;;;;;22.95;11.85;;;7.40;99.90;;;;;;5088587;28;20044;-63
2022/11/23 05:38:02;;;;;;;18.58;11.10;;;7.40;99.90;;;;;;5068293;28;20390;-63
2022/11/23 05:40:28;;;;;;;23.98;11.27;;;7.50;99.90;;;;;;5088644;28;20063;-63
2022/11/23 05:42:58;;;;;;;19.08;11.50;;;7.40;99.90;;;;;;5069050;28;20477;-62
2022/11/23 05:45:25;;;;;;;16.70;11.05;;;7.40;99.90;;;;;;5052590;28;20064;-63
2022/11/23 05:47:53;;;;;;;23.70;10.95;;;7.40;99.90;;;;;;5069861;28;20102;-63
2022/11/23 05:50:20;;;;;;;20.73;11.43;;;7.40;99.90;;;;;;5086580;28;20047;-63
2022/11/23 05:52:46;;;;;;;19.20;10.63;;;7.40;99.90;;;;;;5087889;28;20040;-63
2022/11/23 05:55:12;;;;;;;22.25;11.45;;;7.40;99.90;;;;;;5086930;28;20066;-63
2022/11/23 05:57:38;;;;;;;21.10;10.85;;;7.40;99.90;;;;;;5069756;28;20091;-63
2022/11/23 06:00:04;;;;;;;23.23;12.07;;;7.40;99.90;;;;;;5086973;28;20516;-62
2022/11/23 06:02:30;;;;;;;19.50;11.50;;;7.40;99.90;;;;;;5087398;28;20044;-63
2022/11/23 06:04:56;;;;;;;22.35;11.98;;;7.40;99.90;;;;;;5069065;28;20445;-62
2022/11/23 06:07:22;;;;;;;26.95;13.48;;;7.50;99.90;;;;;;5086291;28;20040;-63
2022/11/23 06:09:48;;;;;;;23.58;12.20;;;7.50;99.90;;;;;;5086904;28;20371;-63
2022/11/23 06:12:13;;;;;;;24.95;12.13;;;7.50;99.90;;;;;;5086707;28;20055;-63
2022/11/23 06:14:39;;;;;;;21.65;12.38;;;7.50;99.90;;;;;;5053436;28;20044;-62
2022/11/23 06:17:05;;;;;;;24.77;12.40;;;7.50;99.90;;;;;;5069030;28;20047;-63
2022/11/23 06:19:31;;;;;;;14.88;10.82;;;7.50;99.90;;;;;;5053297;28;20469;-62
2022/11/23 06:21:57;;;;;;;22.60;12.10;;;7.60;99.90;;;;;;5087240;28;20071;-63
2022/11/23 06:24:24;;;;;;;22.20;12.63;;;7.60;99.90;;;;;;5086285;28;20105;-63
2022/11/23 06:26:53;;;;;;;20.25;12.68;;;7.60;99.90;;;;;;5087394;28;20044;-63
2022/11/23 06:29:19;;;;;;;23.65;12.18;;;7.60;99.90;;;;;;5081972;28;20440;-63
2022/11/23 06:31:46;;;;;;;22.65;12.57;;;7.60;99.90;;;;;;5087234;28;20517;-62
2022/11/23 06:34:12;;;;;;;26.50;12.10;;;7.70;99.90;;;;;;5084822;28;20044;-63
2022/11/23 06:36:42;;;;;;;25.92;12.65;;;7.70;99.90;;;;;;5087329;28;20166;-63
2022/11/23 06:39:08;;;;;;;28.75;11.57;;;7.70;99.90;;;;;;5085526;28;20040;-63
2022/11/23 06:41:34;;;;;;;26.73;11.50;;;7.70;99.90;;;;;;5066295;28;20492;-63
2022/11/23 06:44:00;;;;;;;21.42;11.43;;;7.60;99.90;;;;;;5083760;28;20052;-63
2022/11/23 06:46:26;;;;;;;22.30;11.57;;;7.60;99.90;;;;;;5064366;28;20111;-63
2022/11/23 06:48:52;;;;;;;27.27;11.32;;;7.60;99.90;;;;;;5086517;28;20036;-63
2022/11/23 06:51:18;;;;;;;24.50;11.48;;;7.50;99.90;;;;;;5083702;28;20059;-62
2022/11/23 06:53:44;;;;;;;22.38;11.50;;;7.50;99.90;;;;;;5069262;28;20162;-63
2022/11/23 06:56:09;;;;;;;23.55;11.30;;;7.50;99.90;;;;;;5086742;28;20036;-63
2022/11/23 06:58:35;;;;;;;21.65;10.98;;;7.50;99.90;;;;;;5068848;28;20052;-63
2022/11/23 07:01:04;;;;;;;22.15;10.93;;;7.40;99.90;;;;;;5085826;28;20039;-63
2022/11/23 07:03:30;;;;;;;28.50;11.25;;;7.40;99.90;;;;;;5058751;28;20055;-63
2022/11/23 07:05:57;;;;;;;23.17;10.40;;;7.40;99.90;;;;;;5045185;28;20493;-63
2022/11/23 07:08:22;;;;;;;23.67;9.82;;;7.40;99.90;;;;;;5074818;28;20372;-63
2022/11/23 07:10:48;;;;;;;27.90;11.15;;;7.40;99.90;;;;;;5083840;28;20043;-63
2022/11/23 07:13:15;;;;;;;24.95;11.50;;;7.40;99.90;;;;;;5076564;28;20056;-63
2022/11/23 07:15:42;;;;;;;33.15;11.95;;;7.40;99.90;;;;;;5081153;28;20079;-63
2022/11/23 07:18:10;;;;;;;23.35;10.05;;;7.40;99.90;;;;;;5086869;28;20040;-63
2022/11/23 07:20:36;;;;;;;24.50;10.68;;;7.40;99.90;;;;;;5067121;28;20052;-63
2022/11/23 07:23:05;;;;;;;19.30;10.00;;;7.40;99.90;;;;;;5067238;28;20099;-63
2022/11/23 07:25:33;;;;;;;19.65;11.23;;;7.40;99.90;;;;;;5083329;28;20097;-63
2022/11/23 07:28:00;;;;;;;32.38;11.20;;;7.40;99.90;;;;;;5068487;28;20043;-63
2022/11/23 07:30:27;;;;;;;34.55;15.65;;;7.50;99.90;;;;;;5065980;28;20044;-62
2022/11/23 07:32:57;;;;;;;34.72;13.45;;;7.50;99.90;;;;;;5086474;28;20530;-65
2022/11/23 07:35:23;;;;;;;31.20;11.13;;;7.50;99.90;;;;;;5087109;28;20040;-62
2022/11/23 07:37:48;;;;;;;32.13;9.52;;;7.50;99.90;;;;;;5085660;28;20622;-62
2022/11/23 07:40:14;;;;;;;20.63;8.95;;;7.50;99.90;;;;;;5084767;28;20124;-63
2022/11/23 07:42:40;;;;;;;21.80;8.95;;;7.50;99.90;;;;;;5086026;28;20122;-62
2022/11/23 07:45:06;;;;;;;17.27;8.77;;;7.50;99.90;;;;;;5068057;28;20052;-62
2022/11/23 07:47:32;;;;;;;25.65;9.00;;;7.50;99.90;;;;;;5085375;28;20109;-62
2022/11/23 07:49:58;;;;;;;22.80;8.68;;;7.50;99.90;;;;;;5086385;28;20044;-62
2022/11/23 07:52:24;;;;;;;26.73;8.85;;;7.50;99.90;;;;;;5059180;28;20123;-62
2022/11/23 07:54:49;;;;;;;30.45;7.70;;;7.50;99.90;;;;;;5086102;28;20115;-62
2022/11/23 07:57:15;;;;;;;20.17;6.85;;;7.50;99.90;;;;;;5087227;28;20123;-62
2022/11/23 07:59:41;;;;;;;19.63;6.85;;;7.50;99.90;;;;;;5067439;28;20398;-62
2022/11/23 08:02:11;;;;;;;20.15;6.78;;;7.50;99.90;;;;;;5088081;28;20086;-62
2022/11/23 08:04:38;;;;;;;19.58;6.78;;;7.60;99.90;;;;;;5083943;28;20131;-63
2022/11/23 08:07:04;;;;;;;18.75;6.00;;;7.60;99.90;;;;;;5088237;28;20042;-62
2022/11/23 08:09:29;;;;;;;19.50;6.50;;;7.60;99.90;;;;;;5070843;28;20048;-62
2022/11/23 08:11:55;;;;;;;20.08;6.35;;;7.60;99.90;;;;;;5087600;28;20051;-62
2022/11/23 08:14:21;;;;;;;18.17;5.82;;;7.60;99.90;;;;;;5090041;28;20050;-62
2022/11/23 08:16:51;;;;;;;23.73;6.43;;;7.60;99.90;;;;;;5088339;28;20098;-62
2022/11/23 08:19:17;;;;;;;25.27;5.28;;;7.60;99.90;;;;;;5055540;28;20059;-62
2022/11/23 08:21:43;;;;;;;23.17;5.90;;;7.60;99.90;;;;;;5089062;28;20501;-62
2022/11/23 08:24:09;;;;;;;28.00;6.28;;;7.60;99.90;;;;;;5088128;28;20327;-62
2022/11/23 08:26:34;;;;;;;23.20;5.63;;;7.60;99.90;;;;;;5071391;28;20042;-62
2022/11/23 08:29:00;;;;;;;19.67;6.13;;;7.60;99.90;;;;;;5089589;28;20489;-62
2022/11/23 08:31:26;;;;;;;21.35;5.07;;;7.70;99.90;;;;;;5089833;28;20048;-62
2022/11/23 08:33:51;;;;;;;27.48;5.20;;;7.70;99.90;;;;;;5088328;28;20451;-62
2022/11/23 08:36:17;;;;;;;15.73;4.93;;;7.70;99.90;;;;;;5090109;28;20036;-62
2022/11/23 08:38:44;;;;;;;22.85;4.93;;;7.70;99.90;;;;;;5076819;28;20781;-63
2022/11/23 08:41:10;;;;;;;19.13;5.15;;;7.70;99.90;;;;;;5065661;28;20374;-63
2022/11/23 08:43:36;;;;;;;24.48;5.65;;;7.70;99.90;;;;;;5085759;28;20051;-63
2022/11/23 08:46:02;;;;;;;15.85;4.80;;;7.70;99.90;;;;;;5086499;28;20333;-62
2022/11/23 08:48:28;;;;;;;17.15;3.97;;;7.80;99.90;;;;;;5086475;28;20051;-62
2022/11/23 08:50:56;;;;;;;19.05;4.78;;;7.80;99.90;;;;;;5085947;28;20482;-62
2022/11/23 08:53:22;;;;;;;19.02;5.10;;;7.80;99.90;;;;;;5087856;28;20032;-63
2022/11/23 08:55:48;;;;;;;19.40;4.80;;;7.90;99.90;;;;;;5084869;28;20058;-63
2022/11/23 08:58:13;;;;;;;13.85;4.80;;;7.90;99.90;;;;;;5069314;28;20183;-63
2022/11/23 09:00:39;;;;;;;19.70;5.25;;;7.90;99.90;;;;;;5086284;28;20443;-63
2022/11/23 09:03:05;;;;;;;17.25;4.35;;;8.00;99.90;;;;;;5054028;28;20148;-62
2022/11/23 09:05:31;;;;;;;21.60;4.30;;;8.00;99.90;;;;;;5085139;28;20036;-63
2022/11/23 09:08:00;;;;;;;17.75;4.78;;;8.00;99.90;;;;;;5079836;28;20065;-62
2022/11/23 09:10:25;;;;;;;16.92;4.22;;;8.10;99.90;;;;;;5085878;28;20502;-62
2022/11/23 09:12:52;;;;;;;21.42;4.38;;;8.10;99.90;;;;;;5068649;28;20109;-62
2022/11/23 09:15:17;;;;;;;12.52;4.22;;;8.10;99.90;;;;;;5082867;28;20064;-63
2022/11/23 09:17:43;;;;;;;18.98;3.88;;;8.10;99.90;;;;;;5066403;28;20039;-62
2022/11/23 09:20:10;;;;;;;15.20;3.83;;;8.10;99.90;;;;;;5087484;28;20093;-62
2022/11/23 09:22:36;;;;;;;15.93;4.00;;;8.10;99.90;;;;;;5085731;28;20087;-63
2022/11/23 09:25:02;;;;;;;23.20;4.63;;;8.10;99.90;;;;;;5086534;28;20075;-63
2022/11/23 09:27:28;;;;;;;15.25;4.47;;;8.10;99.90;;;;;;5074715;28;20148;-63
2022/11/23 09:29:54;;;;;;;15.95;4.03;;;8.20;99.90;;;;;;5087543;28;20086;-63
2022/11/23 09:32:20;;;;;;;17.55;3.92;;;8.20;99.90;;;;;;5059155;28;20040;-62
2022/11/23 09:34:45;;;;;;;22.05;4.55;;;8.30;99.90;;;;;;5085910;28;20399;-62
2022/11/23 09:37:12;;;;;;;18.15;3.35;;;8.50;99.90;;;;;;5086861;28;20116;-63
2022/11/23 09:39:39;;;;;;;19.50;4.30;;;8.60;99.90;;;;;;5074849;28;20485;-62
2022/11/23 09:42:24;;;;;;;12.00;3.83;;;8.70;99.90;;;;;;5085565;28;20504;-62
2022/11/23 09:45:13;;;;;;;13.40;3.60;;;8.70;99.90;;;;;;5080141;28;20135;-62
2022/11/23 09:47:45;;;;;;;14.65;3.92;;;8.70;99.90;;;;;;5063248;28;20150;-63
2022/11/23 09:50:27;;;;;;;19.67;3.65;;;8.70;99.90;;;;;;5088153;28;20051;-63
2022/11/23 09:52:53;;;;;;;13.68;3.13;;;8.70;99.90;;;;;;5087752;28;20035;-62
2022/11/23 09:55:42;;;;;;;14.63;3.80;;;8.70;99.90;;;;;;5069436;28;20048;-63
2022/11/23 09:58:18;;;;;;;18.53;3.53;;;8.70;99.90;;;;;;5044426;28;20044;-63
2022/11/23 10:01:04;;;;;;;20.67;3.65;;;8.70;99.90;;;;;;5087022;28;20051;-63
2022/11/23 10:03:40;;;;;;;18.48;3.50;;;8.80;99.90;;;;;;5088727;28;20414;-63
2022/11/23 10:06:24;;;;;;;11.88;2.90;;;8.90;99.90;;;;;;5087673;28;20048;-63
2022/11/23 10:09:08;;;;;;;11.95;3.33;;;9.10;99.90;;;;;;5087574;28;20044;-63
2022/11/23 10:11:47;;;;;;;11.48;3.30;;;9.20;99.90;;;;;;5070189;28;20048;-62
2022/11/23 10:14:25;;;;;;;16.70;3.55;;;9.30;99.90;;;;;;5073518;28;20033;-63
2022/11/23 10:17:13;;;;;;;13.90;2.83;;;9.30;99.90;;;;;;5060174;28;20048;-63
2022/11/23 10:20:12;;;;;;;15.55;3.33;;;9.30;99.90;;;;;;5085895;28;20036;-63
2022/11/23 10:22:54;;;;;;;17.87;3.63;;;9.30;99.90;;;;;;5055557;28;20028;-63
2022/11/23 10:25:22;;;;;;;10.70;3.15;;;9.20;99.90;;;;;;5085593;28;20532;-63
2022/11/23 10:27:49;;;;;;;17.20;3.65;;;9.10;99.90;;;;;;5063583;28;20044;-63
2022/11/23 10:30:17;;;;;;;24.75;3.90;;;9.10;99.90;;;;;;5086311;28;20047;-63
2022/11/23 10:32:55;;;;;;;22.23;4.32;;;9.10;99.90;;;;;;5087623;28;20090;-62
2022/11/23 10:35:28;;;;;;;13.35;3.65;;;9.10;99.90;;;;;;5056107;28;20052;-63
2022/11/23 10:38:11;;;;;;;15.25;3.22;;;9.20;99.90;;;;;;5070134;28;20051;-63
2022/11/23 10:40:50;;;;;;;25.98;3.85;;;9.20;99.90;;;;;;5082842;28;20059;-63
2022/11/23 10:43:21;;;;;;;14.18;3.75;;;9.20;99.90;;;;;;5078093;28;20434;-63
2022/11/23 10:45:47;;;;;;;18.05;3.58;;;9.30;99.90;;;;;;5081986;28;20056;-63
2022/11/23 10:48:33;;;;;;;20.80;3.97;;;9.30;99.90;;;;;;5077530;28;20436;-63
2022/11/23 10:51:31;;;;;;;15.02;3.70;;;9.20;99.90;;;;;;5085938;28;20036;-63
2022/11/23 10:54:13;;;;;;;11.50;3.22;;;9.20;99.90;;;;;;5081481;28;20514;-63
2022/11/23 10:56:48;;;;;;;24.10;3.47;;;9.20;99.90;;;;;;5078117;28;20040;-63
2022/11/23 10:59:35;;;;;;;13.20;2.47;;;9.20;99.90;;;;;;5078366;28;20048;-63
2022/11/23 11:02:10;;;;;;;20.42;3.13;;;9.10;99.90;;;;;;5083028;28;20093;-63
2022/11/23 11:04:36;;;;;;;16.00;3.22;;;9.10;99.90;;;;;;5066442;28;20807;-63
2022/11/23 11:07:27;;;;;;;21.30;3.80;;;9.10;99.90;;;;;;5066709;28;20121;-63
2022/11/23 11:10:02;;;;;;;18.42;2.83;;;9.00;99.90;;;;;;5064108;28;20048;-63
2022/11/23 11:12:32;;;;;;;13.40;3.40;;;9.00;99.90;;;;;;5084523;28;20050;-63
2022/11/23 11:15:09;;;;;;;12.48;3.17;;;9.00;99.90;;;;;;5080840;28;20055;-63
2022/11/23 11:17:38;;;;;;;18.75;2.88;;;9.00;99.90;;;;;;5085812;28;20448;-64
2022/11/23 11:20:27;;;;;;;13.90;3.08;;;9.00;99.90;;;;;;5086650;28;20048;-64
2022/11/23 11:23:01;;;;;;;17.30;3.10;;;9.00;99.90;;;;;;5062883;28;20394;-64
2022/11/23 11:25:36;;;;;;;18.17;2.80;;;9.00;99.90;;;;;;5086239;28;20286;-64
2022/11/23 11:28:17;;;;;;;16.13;3.17;;;9.00;99.90;;;;;;5061449;28;20036;-63
2022/11/23 11:31:07;;;;;;;17.05;3.38;;;9.00;99.90;;;;;;5071940;28;20182;-64
2022/11/23 11:33:48;;;;;;;18.58;3.58;;;9.00;99.90;;;;;;5084067;28;20036;-64
2022/11/23 11:36:16;;;;;;;11.50;2.60;;;9.00;99.90;;;;;;5088743;28;20123;-63
2022/11/23 11:38:47;;;;;;;12.07;2.38;;;9.00;99.90;;;;;;5087915;28;20036;-63
2022/11/23 11:41:15;;;;;;;12.82;2.10;;;9.00;99.90;;;;;;5070977;28;20048;-62
2022/11/23 11:43:49;;;;;;;15.15;2.42;;;9.00;99.90;;;;;;5062931;28;20044;-63
2022/11/23 11:46:27;;;;;;;11.45;2.35;;;8.90;99.90;;;;;;5090767;28;20055;-63
2022/11/23 11:49:18;;;;;;;19.83;3.05;;;9.00;99.90;;;;;;5085578;28;20047;-62
2022/11/23 11:52:06;;;;;;;14.02;2.45;;;9.10;99.90;;;;;;5088258;28;20052;-63
2022/11/23 11:54:50;;;;;;;17.95;2.42;;;9.30;99.90;;;;;;5083625;28;20050;-62
2022/11/23 11:57:36;;;;;;;13.00;2.45;;;9.40;99.90;;;;;;5062485;28;20084;-63
2022/11/23 12:00:09;;;;;;;14.32;2.38;;;9.60;99.90;;;;;;5088021;28;20094;-63
2022/11/23 12:03:01;;;;;;;16.15;2.38;;;9.70;99.90;;;;;;5090347;28;20040;-62
2022/11/23 12:05:40;;;;;;;16.15;3.00;;;9.70;99.90;;;;;;5029815;28;20171;-62
2022/11/23 12:08:42;;;;;;;17.17;2.80;;;9.80;99.90;;;;;;5074847;28;20055;-62
2022/11/23 12:11:11;;;;;;;17.27;3.58;;;9.80;99.90;;;;;;5090040;28;20425;-62
2022/11/23 12:13:40;;;;;;;11.25;2.60;;;9.80;99.90;;;;;;5088020;28;20865;-62
2022/11/23 12:16:25;;;;;;;12.00;2.45;;;9.80;99.90;;;;;;5089642;28;20059;-62
2022/11/23 12:19:13;;;;;;;13.75;2.80;;;9.70;99.90;;;;;;5090895;28;20052;-63
2022/11/23 12:21:57;;;;;;;22.65;3.00;;;9.70;99.90;;;;;;5090135;28;20123;-63
2022/11/23 12:24:55;;;;;;;13.27;2.53;;;9.80;99.90;;;;;;5090987;28;20424;-62
2022/11/23 12:27:45;;;;;;;14.45;3.05;;;9.80;99.90;;;;;;5070350;28;20588;-63
2022/11/23 12:30:33;;;;;;;15.98;3.00;;;9.80;99.90;;;;;;5068867;28;20371;-63
2022/11/23 12:33:04;;;;;;;17.50;3.20;;;9.80;99.90;;;;;;5088399;28;20054;-62
2022/11/23 12:36:07;;;;;;;12.77;2.45;;;9.90;99.90;;;;;;5089692;28;20052;-62
2022/11/23 12:39:00;;;;;;;13.80;3.28;;;10.00;99.90;;;;;;5079221;28;20044;-63
2022/11/23 12:41:54;;;;;;;6.65;0.93;;;10.10;99.90;;;;;;5066211;28;20032;-62
2022/11/23 12:44:45;;;;;;;12.30;2.05;;;10.10;99.90;;;;;;5068453;28;20909;-63
2022/11/23 12:47:33;;;;;;;11.45;2.53;;;10.20;99.90;;;;;;5076083;28;20522;-62
2022/11/23 12:50:12;;;;;;;18.38;3.67;;;10.20;99.90;;;;;;5063771;28;20088;-63
2022/11/23 12:53:04;;;;;;;9.43;2.25;;;10.20;99.90;;;;;;5084633;28;20039;-63
2022/11/23 12:55:36;;;;;;;22.00;3.25;;;10.10;99.90;;;;;;5088629;28;20423;-63
2022/11/23 12:58:10;;;;;;;14.05;3.10;;;10.00;99.90;;;;;;5084398;28;20115;-63